Dalrymple, United Kingdom
Current Conditions -  °F | °C
As of 6:50 PM on Tuesday 21 Oct 2014 (Local Time) from EGPK Reporting Station
Rain Showers Rain Showers  
Wind Chill: 37°   Ceiling: Unl
Heat Index: 46°   Visibility: 6mi
Dew Point: 37°   Wind: 32mph
Humidity: 71%   Direction: 300°WNW
Pressure: 29.88"   Gusts: 46mph
Location:  55.4°N, 4.59°W
Report Text: EGPK 211750Z 30028G40KT 9999 -SHRA FEW012 FEW020CB 08/03 Q1012
Loading
Personal Weather Stations






























Interactive Weather Map
Tropical Storm Tracking
New forecast layout! Learn more

10-Day Weather Forecast

Advertisements
Track Severe Weather on mobile